Milford, UT

11:11 PM MDT on August 27, 2014 (GMT -0600)
Milford Municipal | Change Station
CLOSE
Current Station
Airport
Location: Milford,
Elevation: 5039 ft
Nearby Weather Stations

Elev 5039 ft 38.43 °N, 113.01 °W | Updated 19 minutes ago

Clear
Clear
60 °F
Feels Like 60 °F
N
7
Wind Variable Wind from WNW

Today
High -- | Low -- °F
--% Chance of Precip.
Yesterday
High -- | Low -- °F
Precip. -- in
6:57 AM 8:09 PM
Waxing Crescent, 6% visible
Pressure 30.12 in
Visibility 10.0 miles
Clouds Clear
Dew Point 48 °F
Humidity 64%
Rainfall 0.00 in
Snow Depth Not available.
UV 0 out of 12
Pollen 6.10 out of 12
Air Quality Not available.
Flu Activity Not available.
METAR KMLF 280452Z AUTO 29006KT 10SM CLR 16/09 A3025 RMK AO2 SLP197 T01560089

More Conditions Fewer Conditions

Pressure 30.12 in
Visibility 10.0 miles
Clouds Clear
Dew Point 48 °F
Humidity 64%
Rainfall 0.00 in
Snow Depth Not available.
UV 0 out of 12
Pollen 6.10 out of 12
Air Quality Not available.
Flu Activity Not available.
METAR KMLF 280452Z AUTO 29006KT 10SM CLR 16/09 A3025 RMK AO2 SLP197 T01560089

More Conditions Fewer Conditions

10-Day Weather Forecast

Almanac

Astronomy

Aug. 27, 2014 Rise Set
Actual Time 6:57 AM MDT 8:09 PM MDT
Civil Twilight 6:29 AM MDT 8:36 PM MDT
Nautical Twilight 5:57 AM MDT 9:08 PM MDT
Astronomical Twilight 5:22 AM MDT 9:42 PM MDT
Moon 8:54 AM MDT (8/27) 9:05 PM MDT (8/27)
Length of Visible Light 14h 06m
Length of Day
13h 11m
Tomorrow will be 2m 21s shorter.
Waxing Crescent, 6% of the Moon is Illuminated
Aug 28
Waxing Crescent
Sep 2
First Quarter
Sep 8
Full
Sep 15
Last Quarter
Sep 24
New

Yesterday's Extremes

State Highs State Lows

Community

WunderPhotos

Upload Photos

1,747,908 photos uploaded!

Nearby

Snow Depth

Station Depth Elevation
Merchant Valley 0 in 8750 ft
Kimberly Mine 0 in 9300 ft
Box Creek 0 in 9800 ft
Midway Valley 4 in 9800 ft
Long Valley Jct 0 in 7360 ft

Earthquake Activity

City Distance Mag. Time & Date
No recent earthquake activity has been reported nearby.
Minimum magnitude displayed is 2.5.

Coastal Water Temperatures

Place Temperature
No Stations Reporting

Nearby Weather Stations